Terminal Aerodrome Forecast
Issued by NWS

Current Version | Previous Version | Text Only | Print | Product List | Glossary On
Versions: 1 2 3 4 5 6 7 8 9 10 11 12 13 14 15 16 17 18 19
000
FTUS43 KLSX 301130
TAFUIN
TAF
KUIN 301130Z 3012/0112 36007KT P6SM BKN035
     FM301400 36010KT P6SM VCSH SCT015 BKN025
      TEMPO 3014/3018 BKN015
     FM302100 01011KT P6SM VCSH BKN035
     FM010100 36006KT P6SM BKN025
     FM010300 35006KT P6SM SCT009 BKN015=

USA.gov is the U.S. government's official web portal to all federal, state and local government web resources and services.